sensor_id;sensor_type;location;lat;lon;timestamp;pressure;altitude;pressure_sealevel;temperature;humidity
32298;BME280;18782;48.984;8.548;2023-04-21T00:02:07;99607.78;;;3.39;100.00
32298;BME280;18782;48.984;8.548;2023-04-21T00:04:35;99600.16;;;3.39;100.00
32298;BME280;18782;48.984;8.548;2023-04-21T00:07:03;99608.44;;;3.35;100.00
32298;BME280;18782;48.984;8.548;2023-04-21T00:09:30;99600.94;;;3.38;100.00
32298;BME280;18782;48.984;8.548;2023-04-21T00:11:58;99592.38;;;3.36;100.00
32298;BME280;18782;48.984;8.548;2023-04-21T00:14:27;99594.09;;;3.37;100.00
32298;BME280;18782;48.984;8.548;2023-04-21T00:16:54;99590.63;;;3.35;100.00
32298;BME280;18782;48.984;8.548;2023-04-21T00:19:22;99593.75;;;3.30;100.00
32298;BME280;18782;48.984;8.548;2023-04-21T00:21:49;99592.72;;;3.26;100.00
32298;BME280;18782;48.984;8.548;2023-04-21T00:24:17;99590.75;;;3.21;100.00
32298;BME280;18782;48.984;8.548;2023-04-21T00:26:44;99589.72;;;3.17;100.00
32298;BME280;18782;48.984;8.548;2023-04-21T00:29:12;99583.78;;;3.17;100.00
32298;BME280;18782;48.984;8.548;2023-04-21T00:31:41;99586.25;;;3.15;100.00
32298;BME280;18782;48.984;8.548;2023-04-21T00:34:09;99591.19;;;3.12;100.00
32298;BME280;18782;48.984;8.548;2023-04-21T00:36:36;99588.41;;;3.07;100.00
32298;BME280;18782;48.984;8.548;2023-04-21T00:39:04;99581.47;;;3.03;100.00
32298;BME280;18782;48.984;8.548;2023-04-21T00:41:33;99583.03;;;3.01;100.00
32298;BME280;18782;48.984;8.548;2023-04-21T00:44:03;99586.38;;;3.00;100.00
32298;BME280;18782;48.984;8.548;2023-04-21T00:46:31;99582.03;;;2.98;100.00
32298;BME280;18782;48.984;8.548;2023-04-21T00:49:03;99581.72;;;2.92;100.00
32298;BME280;18782;48.984;8.548;2023-04-21T00:51:33;99581.59;;;2.88;100.00
32298;BME280;18782;48.984;8.548;2023-04-21T00:54:03;99578.81;;;2.84;100.00
32298;BME280;18782;48.984;8.548;2023-04-21T00:56:34;99580.31;;;2.80;100.00
32298;BME280;18782;48.984;8.548;2023-04-21T00:59:02;99574.31;;;2.78;100.00
32298;BME280;18782;48.984;8.548;2023-04-21T01:01:31;99575.88;;;2.76;100.00
32298;BME280;18782;48.984;8.548;2023-04-21T01:04:02;99561.53;;;2.77;100.00
32298;BME280;18782;48.984;8.548;2023-04-21T01:06:30;99566.63;;;2.77;100.00
32298;BME280;18782;48.984;8.548;2023-04-21T01:08:58;99559.69;;;2.74;100.00
32298;BME280;18782;48.984;8.548;2023-04-21T01:11:26;99563.84;;;2.72;100.00
32298;BME280;18782;48.984;8.548;2023-04-21T01:13:54;99558.59;;;2.69;100.00
32298;BME280;18782;48.984;8.548;2023-04-21T01:16:22;99553.34;;;2.66;100.00
32298;BME280;18782;48.984;8.548;2023-04-21T01:18:52;99559.16;;;2.64;100.00
32298;BME280;18782;48.984;8.548;2023-04-21T01:21:21;99556.56;;;2.62;100.00
32298;BME280;18782;48.984;8.548;2023-04-21T01:23:50;99569.16;;;2.60;100.00
32298;BME280;18782;48.984;8.548;2023-04-21T01:26:18;99562.91;;;2.54;100.00
32298;BME280;18782;48.984;8.548;2023-04-21T01:28:46;99563.66;;;2.51;100.00
32298;BME280;18782;48.984;8.548;2023-04-21T01:31:15;99565.97;;;2.47;99.99
32298;BME280;18782;48.984;8.548;2023-04-21T01:33:43;99567.41;;;2.42;99.70
32298;BME280;18782;48.984;8.548;2023-04-21T01:36:10;99565.50;;;2.38;99.84
32298;BME280;18782;48.984;8.548;2023-04-21T01:38:38;99561.84;;;2.32;99.85
32298;BME280;18782;48.984;8.548;2023-04-21T01:41:08;99563.28;;;2.27;100.00
32298;BME280;18782;48.984;8.548;2023-04-21T01:43:36;99552.00;;;2.22;100.00
32298;BME280;18782;48.984;8.548;2023-04-21T01:46:04;99569.63;;;2.19;100.00
32298;BME280;18782;48.984;8.548;2023-04-21T01:48:32;99568.53;;;2.14;100.00
32298;BME280;18782;48.984;8.548;2023-04-21T01:51:00;99565.91;;;2.13;100.00
32298;BME280;18782;48.984;8.548;2023-04-21T01:53:27;99573.50;;;2.13;100.00
32298;BME280;18782;48.984;8.548;2023-04-21T01:55:55;99575.97;;;2.11;100.00
32298;BME280;18782;48.984;8.548;2023-04-21T01:58:24;99579.63;;;2.16;100.00
32298;BME280;18782;48.984;8.548;2023-04-21T02:00:51;99569.31;;;2.13;100.00
32298;BME280;18782;48.984;8.548;2023-04-21T02:03:20;99564.88;;;2.09;100.00
32298;BME280;18782;48.984;8.548;2023-04-21T02:05:49;99569.22;;;2.12;100.00
32298;BME280;18782;48.984;8.548;2023-04-21T02:08:16;99565.75;;;2.09;100.00
32298;BME280;18782;48.984;8.548;2023-04-21T02:10:44;99570.91;;;2.11;100.00
32298;BME280;18782;48.984;8.548;2023-04-21T02:13:12;99569.22;;;2.12;100.00
32298;BME280;18782;48.984;8.548;2023-04-21T02:15:41;99564.09;;;2.10;100.00
32298;BME280;18782;48.984;8.548;2023-04-21T02:18:08;99564.88;;;2.09;100.00
32298;BME280;18782;48.984;8.548;2023-04-21T02:20:36;99577.59;;;2.09;100.00
32298;BME280;18782;48.984;8.548;2023-04-21T02:23:05;99579.16;;;2.07;100.00
32298;BME280;18782;48.984;8.548;2023-04-21T02:25:32;99577.59;;;2.09;100.00
32298;BME280;18782;48.984;8.548;2023-04-21T02:28:00;99577.25;;;2.03;100.00
32298;BME280;18782;48.984;8.548;2023-04-21T02:30:27;99582.31;;;2.03;100.00
32298;BME280;18782;48.984;8.548;2023-04-21T02:32:56;99583.13;;;2.02;100.00
32298;BME280;18782;48.984;8.548;2023-04-21T02:35:24;99570.28;;;1.99;100.00
32298;BME280;18782;48.984;8.548;2023-04-21T02:37:52;99572.03;;;2.00;100.00
32298;BME280;18782;48.984;8.548;2023-04-21T02:40:21;99580.56;;;2.02;100.00
32298;BME280;18782;48.984;8.548;2023-04-21T02:42:51;99580.56;;;2.02;100.00
32298;BME280;18782;48.984;8.548;2023-04-21T02:45:18;99575.34;;;1.99;100.00
32298;BME280;18782;48.984;8.548;2023-04-21T02:47:46;99586.38;;;1.99;100.00
32298;BME280;18782;48.984;8.548;2023-04-21T02:50:15;99585.66;;;2.02;100.00
32298;BME280;18782;48.984;8.548;2023-04-21T02:52:42;99589.00;;;2.01;100.00
32298;BME280;18782;48.984;8.548;2023-04-21T02:55:10;99597.41;;;2.00;100.00
32298;BME280;18782;48.984;8.548;2023-04-21T02:57:37;99592.16;;;1.97;100.00
32298;BME280;18782;48.984;8.548;2023-04-21T03:00:06;99581.06;;;1.95;100.00
32298;BME280;18782;48.984;8.548;2023-04-21T03:02:34;99579.31;;;1.94;100.00
32298;BME280;18782;48.984;8.548;2023-04-21T03:05:02;99582.56;;;1.91;100.00
32298;BME280;18782;48.984;8.548;2023-04-21T03:07:31;99567.31;;;1.91;100.00
32298;BME280;18782;48.984;8.548;2023-04-21T03:09:59;99556.31;;;1.91;100.00
32298;BME280;18782;48.984;8.548;2023-04-21T03:12:27;99563.91;;;1.91;100.00
32298;BME280;18782;48.984;8.548;2023-04-21T03:14:54;99563.75;;;1.88;100.00
32298;BME280;18782;48.984;8.548;2023-04-21T03:17:22;99557.66;;;1.84;100.00
32298;BME280;18782;48.984;8.548;2023-04-21T03:19:50;99559.31;;;1.83;100.00
32298;BME280;18782;48.984;8.548;2023-04-21T03:22:19;99559.31;;;1.83;100.00
32298;BME280;18782;48.984;8.548;2023-04-21T03:24:48;99558.44;;;1.83;100.00
32298;BME280;18782;48.984;8.548;2023-04-21T03:27:16;99558.28;;;1.80;100.00
32298;BME280;18782;48.984;8.548;2023-04-21T03:29:45;99558.03;;;1.75;100.00
32298;BME280;18782;48.984;8.548;2023-04-21T03:32:12;99558.66;;;1.71;100.00
32298;BME280;18782;48.984;8.548;2023-04-21T03:34:40;99558.66;;;1.71;100.00
32298;BME280;18782;48.984;8.548;2023-04-21T03:37:08;99557.72;;;1.69;100.00
32298;BME280;18782;48.984;8.548;2023-04-21T03:39:35;99555.00;;;1.66;100.00
32298;BME280;18782;48.984;8.548;2023-04-21T03:42:06;99561.66;;;1.64;100.00
32298;BME280;18782;48.984;8.548;2023-04-21T03:44:34;99540.31;;;1.61;100.00
32298;BME280;18782;48.984;8.548;2023-04-21T03:47:01;99549.69;;;1.62;100.00
32298;BME280;18782;48.984;8.548;2023-04-21T03:49:29;99543.72;;;1.61;100.00
32298;BME280;18782;48.984;8.548;2023-04-21T03:51:57;99541.06;;;1.58;100.00
32298;BME280;18782;48.984;8.548;2023-04-21T03:54:25;99549.47;;;1.57;100.00
32298;BME280;18782;48.984;8.548;2023-04-21T03:56:52;99546.94;;;1.57;100.00
32298;BME280;18782;48.984;8.548;2023-04-21T03:59:21;99539.13;;;1.54;100.00
32298;BME280;18782;48.984;8.548;2023-04-21T04:01:49;99538.34;;;1.55;100.00
32298;BME280;18782;48.984;8.548;2023-04-21T04:04:16;99535.97;;;1.58;100.00
32298;BME280;18782;48.984;8.548;2023-04-21T04:06:44;99533.34;;;1.56;100.00
32298;BME280;18782;48.984;8.548;2023-04-21T04:09:12;99534.25;;;1.57;100.00
32298;BME280;18782;48.984;8.548;2023-04-21T04:11:39;99536.84;;;1.59;100.00
32298;BME280;18782;48.984;8.548;2023-04-21T04:14:07;99526.44;;;1.54;100.00
32298;BME280;18782;48.984;8.548;2023-04-21T04:16:36;99542.47;;;1.53;100.00
32298;BME280;18782;48.984;8.548;2023-04-21T04:19:03;99547.38;;;1.50;100.00
32298;BME280;18782;48.984;8.548;2023-04-21T04:21:31;99551.56;;;1.49;100.00
32298;BME280;18782;48.984;8.548;2023-04-21T04:23:59;99550.69;;;1.49;100.00
32298;BME280;18782;48.984;8.548;2023-04-21T04:26:27;99550.69;;;1.49;100.00
32298;BME280;18782;48.984;8.548;2023-04-21T04:28:55;99536.19;;;1.46;100.00
32298;BME280;18782;48.984;8.548;2023-04-21T04:31:22;99537.94;;;1.47;100.00
32298;BME280;18782;48.984;8.548;2023-04-21T04:33:52;99537.22;;;1.50;100.00
32298;BME280;18782;48.984;8.548;2023-04-21T04:36:21;99536.41;;;1.51;100.00
32298;BME280;18782;48.984;8.548;2023-04-21T04:38:49;99534.94;;;1.54;100.00
32298;BME280;18782;48.984;8.548;2023-04-21T04:41:16;99538.66;;;1.61;100.00
32298;BME280;18782;48.984;8.548;2023-04-21T04:43:44;99538.22;;;1.68;100.00
32298;BME280;18782;48.984;8.548;2023-04-21T04:46:12;99548.50;;;1.71;100.00
32298;BME280;18782;48.984;8.548;2023-04-21T04:48:40;99551.16;;;1.73;100.00
32298;BME280;18782;48.984;8.548;2023-04-21T04:51:09;99547.25;;;1.96;100.00
32298;BME280;18782;48.984;8.548;2023-04-21T04:53:36;99540.44;;;2.11;100.00
32298;BME280;18782;48.984;8.548;2023-04-21T04:56:04;99548.22;;;2.14;100.00
32298;BME280;18782;48.984;8.548;2023-04-21T04:58:32;99540.44;;;2.11;100.00
32298;BME280;18782;48.984;8.548;2023-04-21T05:01:10;99553.94;;;2.10;100.00
32298;BME280;18782;48.984;8.548;2023-04-21T05:03:37;99555.66;;;2.11;100.00
32298;BME280;18782;48.984;8.548;2023-04-21T05:06:06;99555.66;;;2.11;100.00
32298;BME280;18782;48.984;8.548;2023-04-21T05:08:35;99555.84;;;2.14;100.00
32298;BME280;18782;48.984;8.548;2023-04-21T05:11:03;99560.75;;;2.11;100.00
32298;BME280;18782;48.984;8.548;2023-04-21T05:13:30;99567.44;;;2.09;100.00
32298;BME280;18782;48.984;8.548;2023-04-21T05:15:58;99577.59;;;2.09;100.00
32298;BME280;18782;48.984;8.548;2023-04-21T05:18:27;99576.16;;;2.14;100.00
32298;BME280;18782;48.984;8.548;2023-04-21T05:20:55;99568.44;;;2.13;100.00
32298;BME280;18782;48.984;8.548;2023-04-21T05:23:23;99566.63;;;2.26;100.00
32298;BME280;18782;48.984;8.548;2023-04-21T05:25:51;99575.66;;;2.38;100.00
32298;BME280;18782;48.984;8.548;2023-04-21T05:28:19;99578.03;;;2.51;100.00
32298;BME280;18782;48.984;8.548;2023-04-21T05:30:47;99579.44;;;2.62;100.00
32298;BME280;18782;48.984;8.548;2023-04-21T05:33:16;99583.72;;;2.63;100.00
32298;BME280;18782;48.984;8.548;2023-04-21T05:35:44;99582.91;;;2.64;100.00
32298;BME280;18782;48.984;8.548;2023-04-21T05:38:12;99586.38;;;2.66;100.00
32298;BME280;18782;48.984;8.548;2023-04-21T05:40:40;99593.31;;;2.69;100.00
32298;BME280;18782;48.984;8.548;2023-04-21T05:43:08;99591.06;;;2.75;100.00
32298;BME280;18782;48.984;8.548;2023-04-21T05:45:38;99591.28;;;2.79;100.00
32298;BME280;18782;48.984;8.548;2023-04-21T05:48:06;99596.69;;;2.85;100.00
32298;BME280;18782;48.984;8.548;2023-04-21T05:50:33;99591.75;;;2.88;100.00
32298;BME280;18782;48.984;8.548;2023-04-21T05:53:01;99590.88;;;2.88;100.00
32298;BME280;18782;48.984;8.548;2023-04-21T05:55:29;99589.28;;;2.90;100.00
32298;BME280;18782;48.984;8.548;2023-04-21T05:57:56;99591.25;;;2.96;100.00
32298;BME280;18782;48.984;8.548;2023-04-21T06:00:25;99594.94;;;3.02;100.00
32298;BME280;18782;48.984;8.548;2023-04-21T06:02:53;99593.66;;;3.10;100.00
32298;BME280;18782;48.984;8.548;2023-04-21T06:05:21;99588.28;;;3.22;100.00
32298;BME280;18782;48.984;8.548;2023-04-21T06:07:49;99593.53;;;3.25;100.00
32298;BME280;18782;48.984;8.548;2023-04-21T06:10:17;99608.84;;;3.27;100.00
32298;BME280;18782;48.984;8.548;2023-04-21T06:12:44;99608.91;;;3.28;100.00
32298;BME280;18782;48.984;8.548;2023-04-21T06:15:12;99609.25;;;3.34;100.00
32298;BME280;18782;48.984;8.548;2023-04-21T06:17:41;99608.72;;;3.42;100.00
32298;BME280;18782;48.984;8.548;2023-04-21T06:20:09;99601.25;;;3.45;100.00
32298;BME280;18782;48.984;8.548;2023-04-21T06:22:37;99601.53;;;3.51;100.00
32298;BME280;18782;48.984;8.548;2023-04-21T06:25:05;99599.25;;;3.57;100.00
32298;BME280;18782;48.984;8.548;2023-04-21T06:27:33;99591.91;;;3.63;100.00
32298;BME280;18782;48.984;8.548;2023-04-21T06:30:01;99596.47;;;3.70;100.00
32298;BME280;18782;48.984;8.548;2023-04-21T06:32:28;99599.31;;;3.76;100.00
32298;BME280;18782;48.984;8.548;2023-04-21T06:34:57;99601.31;;;3.83;100.00
32298;BME280;18782;48.984;8.548;2023-04-21T06:37:25;99600.06;;;3.93;100.00
32298;BME280;18782;48.984;8.548;2023-04-21T06:39:52;99600.41;;;4.01;100.00
32298;BME280;18782;48.984;8.548;2023-04-21T06:42:20;99597.34;;;4.08;100.00
32298;BME280;18782;48.984;8.548;2023-04-21T06:44:47;99592.63;;;4.17;100.00
32298;BME280;18782;48.984;8.548;2023-04-21T06:51:24;99581.91;;;4.43;100.00
32298;BME280;18782;48.984;8.548;2023-04-21T06:53:51;99583.91;;;4.51;100.00
32298;BME280;18782;48.984;8.548;2023-04-21T06:56:19;99581.88;;;4.63;100.00
32298;BME280;18782;48.984;8.548;2023-04-21T06:58:47;99581.59;;;4.76;100.00
32298;BME280;18782;48.984;8.548;2023-04-21T07:01:14;99587.19;;;4.88;100.00
32298;BME280;18782;48.984;8.548;2023-04-21T07:03:42;99588.69;;;5.04;100.00
32298;BME280;18782;48.984;8.548;2023-04-21T07:06:10;99587.75;;;5.23;100.00
32298;BME280;18782;48.984;8.548;2023-04-21T07:08:39;99583.31;;;5.40;100.00
32298;BME280;18782;48.984;8.548;2023-04-21T07:11:07;99574.56;;;5.56;100.00
32298;BME280;18782;48.984;8.548;2023-04-21T07:13:34;99573.50;;;5.73;100.00
32298;BME280;18782;48.984;8.548;2023-04-21T07:16:02;99578.38;;;5.89;100.00
32298;BME280;18782;48.984;8.548;2023-04-21T07:18:29;99571.44;;;6.08;100.00
32298;BME280;18782;48.984;8.548;2023-04-21T07:20:57;99567.19;;;6.32;100.00
32298;BME280;18782;48.984;8.548;2023-04-21T07:23:25;99566.09;;;6.49;100.00
32298;BME280;18782;48.984;8.548;2023-04-21T07:25:57;99553.13;;;6.69;100.00
32298;BME280;18782;48.984;8.548;2023-04-21T07:28:25;99553.00;;;6.91;99.51
32298;BME280;18782;48.984;8.548;2023-04-21T07:30:53;99544.34;;;7.15;97.84
32298;BME280;18782;48.984;8.548;2023-04-21T07:33:20;99552.09;;;7.43;96.00
32298;BME280;18782;48.984;8.548;2023-04-21T07:35:48;99542.31;;;7.58;93.89
32298;BME280;18782;48.984;8.548;2023-04-21T07:38:16;99542.94;;;7.80;92.52
32298;BME280;18782;48.984;8.548;2023-04-21T07:40:43;99558.66;;;7.92;91.29
32298;BME280;18782;48.984;8.548;2023-04-21T07:43:12;99556.81;;;8.18;88.20
32298;BME280;18782;48.984;8.548;2023-04-21T07:45:40;99557.88;;;8.25;88.02
32298;BME280;18782;48.984;8.548;2023-04-21T07:48:07;99556.38;;;8.33;88.05
32298;BME280;18782;48.984;8.548;2023-04-21T07:50:35;99554.94;;;8.41;87.91
32298;BME280;18782;48.984;8.548;2023-04-21T07:53:03;99566.09;;;8.43;89.01
32298;BME280;18782;48.984;8.548;2023-04-21T07:55:31;99562.91;;;8.52;88.95
32298;BME280;18782;48.984;8.548;2023-04-21T07:57:58;99553.81;;;8.65;87.13
32298;BME280;18782;48.984;8.548;2023-04-21T08:00:27;99553.97;;;8.71;86.06
32298;BME280;18782;48.984;8.548;2023-04-21T08:02:55;99543.19;;;8.84;85.65
32298;BME280;18782;48.984;8.548;2023-04-21T08:05:22;99547.78;;;8.97;85.02
32298;BME280;18782;48.984;8.548;2023-04-21T08:07:55;99551.56;;;9.11;84.74
32298;BME280;18782;48.984;8.548;2023-04-21T08:10:23;99544.94;;;9.21;83.79
32298;BME280;18782;48.984;8.548;2023-04-21T08:12:51;99541.78;;;9.33;84.47
32298;BME280;18782;48.984;8.548;2023-04-21T08:15:18;99544.69;;;9.47;83.20
32298;BME280;18782;48.984;8.548;2023-04-21T08:17:47;99542.56;;;9.66;81.29
32298;BME280;18782;48.984;8.548;2023-04-21T08:20:15;99525.53;;;9.72;81.69
32298;BME280;18782;48.984;8.548;2023-04-21T08:22:43;99531.72;;;9.81;80.61
32298;BME280;18782;48.984;8.548;2023-04-21T08:25:13;99523.41;;;9.93;80.49
32298;BME280;18782;48.984;8.548;2023-04-21T08:27:41;99533.03;;;10.03;81.33
32298;BME280;18782;48.984;8.548;2023-04-21T08:30:10;99533.13;;;10.08;79.13
32298;BME280;18782;48.984;8.548;2023-04-21T08:32:37;99537.53;;;10.13;79.36
32298;BME280;18782;48.984;8.548;2023-04-21T08:35:07;99523.31;;;10.31;79.56
32298;BME280;18782;48.984;8.548;2023-04-21T08:37:36;99532.03;;;10.39;78.41
32298;BME280;18782;48.984;8.548;2023-04-21T08:40:04;99526.13;;;10.44;78.76
32298;BME280;18782;48.984;8.548;2023-04-21T08:42:33;99515.19;;;10.56;78.53
32298;BME280;18782;48.984;8.548;2023-04-21T08:45:02;99512.63;;;10.58;77.48
32298;BME280;18782;48.984;8.548;2023-04-21T08:47:31;99510.06;;;10.59;78.19
32298;BME280;18782;48.984;8.548;2023-04-21T08:49:58;99508.44;;;10.64;79.55
32298;BME280;18782;48.984;8.548;2023-04-21T08:52:27;99511.34;;;10.83;78.18
32298;BME280;18782;48.984;8.548;2023-04-21T08:54:55;99509.03;;;10.98;76.68
32298;BME280;18782;48.984;8.548;2023-04-21T08:57:22;99512.56;;;11.06;77.50
32298;BME280;18782;48.984;8.548;2023-04-21T08:59:50;99510.22;;;11.20;74.64
32298;BME280;18782;48.984;8.548;2023-04-21T09:02:18;99507.78;;;11.29;74.30
32298;BME280;18782;48.984;8.548;2023-04-21T09:04:47;99502.69;;;11.34;73.81
32298;BME280;18782;48.984;8.548;2023-04-21T09:07:31;99501.16;;;11.48;75.97
32298;BME280;18782;48.984;8.548;2023-04-21T09:09:59;99492.69;;;11.58;76.07
32298;BME280;18782;48.984;8.548;2023-04-21T09:12:27;99501.41;;;11.66;74.02
32298;BME280;18782;48.984;8.548;2023-04-21T09:14:55;99499.06;;;11.82;74.19
32298;BME280;18782;48.984;8.548;2023-04-21T09:17:27;99486.34;;;12.00;74.17
32298;BME280;18782;48.984;8.548;2023-04-21T09:20:12;99489.94;;;12.11;73.12
32298;BME280;18782;48.984;8.548;2023-04-21T09:22:41;99494.38;;;12.23;73.18
32298;BME280;18782;48.984;8.548;2023-04-21T09:25:09;99490.16;;;12.33;72.04
32298;BME280;18782;48.984;8.548;2023-04-21T09:27:37;99480.72;;;12.36;71.05
32298;BME280;18782;48.984;8.548;2023-04-21T09:30:07;99473.81;;;12.32;70.66
32298;BME280;18782;48.984;8.548;2023-04-21T09:32:35;99469.53;;;12.36;71.55
32298;BME280;18782;48.984;8.548;2023-04-21T09:35:04;99473.16;;;12.56;72.21
32298;BME280;18782;48.984;8.548;2023-04-21T09:37:32;99474.19;;;12.76;73.23
32298;BME280;18782;48.984;8.548;2023-04-21T09:40:02;99471.66;;;12.79;70.78
32298;BME280;18782;48.984;8.548;2023-04-21T09:42:32;99468.34;;;12.96;70.67
32298;BME280;18782;48.984;8.548;2023-04-21T09:45:05;99465.84;;;13.11;69.20
32298;BME280;18782;48.984;8.548;2023-04-21T09:47:42;99470.25;;;13.21;67.25
32298;BME280;18782;48.984;8.548;2023-04-21T09:50:11;99462.44;;;13.20;66.38
32298;BME280;18782;48.984;8.548;2023-04-21T09:52:39;99468.59;;;13.32;66.57
32298;BME280;18782;48.984;8.548;2023-04-21T09:55:12;99471.28;;;13.52;66.82
32298;BME280;18782;48.984;8.548;2023-04-21T09:57:41;99460.97;;;13.60;64.74
32298;BME280;18782;48.984;8.548;2023-04-21T10:00:11;99461.03;;;13.69;65.25
32298;BME280;18782;48.984;8.548;2023-04-21T10:02:42;99457.59;;;13.79;64.35
32298;BME280;18782;48.984;8.548;2023-04-21T10:05:10;99455.00;;;13.82;64.36
32298;BME280;18782;48.984;8.548;2023-04-21T10:07:38;99458.53;;;13.97;62.76
32298;BME280;18782;48.984;8.548;2023-04-21T10:10:10;99457.66;;;14.04;64.04
32298;BME280;18782;48.984;8.548;2023-04-21T10:12:40;99451.69;;;14.20;63.67
32298;BME280;18782;48.984;8.548;2023-04-21T10:15:28;99438.75;;;14.20;63.58
32298;BME280;18782;48.984;8.548;2023-04-21T10:18:10;99434.50;;;14.53;65.36
32298;BME280;18782;48.984;8.548;2023-04-21T10:20:50;99431.00;;;14.77;61.96
32298;BME280;18782;48.984;8.548;2023-04-21T10:23:28;99448.28;;;14.90;62.44
32298;BME280;18782;48.984;8.548;2023-04-21T10:26:04;99446.50;;;15.18;62.87
32298;BME280;18782;48.984;8.548;2023-04-21T10:28:45;99428.31;;;15.41;59.91
32298;BME280;18782;48.984;8.548;2023-04-21T10:31:18;99434.31;;;15.51;59.69
32298;BME280;18782;48.984;8.548;2023-04-21T10:34:11;99426.53;;;15.52;60.48
32298;BME280;18782;48.984;8.548;2023-04-21T10:36:48;99435.09;;;15.79;59.19
32298;BME280;18782;48.984;8.548;2023-04-21T10:39:27;99427.25;;;15.89;59.56
32298;BME280;18782;48.984;8.548;2023-04-21T10:41:56;99419.38;;;16.05;59.15
32298;BME280;18782;48.984;8.548;2023-04-21T10:44:27;99422.75;;;16.19;58.95
32298;BME280;18782;48.984;8.548;2023-04-21T10:46:57;99420.81;;;16.44;57.75
32298;BME280;18782;48.984;8.548;2023-04-21T10:49:26;99411.22;;;16.57;58.69
32298;BME280;18782;48.984;8.548;2023-04-21T10:52:02;99405.94;;;16.66;58.27
32298;BME280;18782;48.984;8.548;2023-04-21T10:54:36;99413.63;;;16.80;55.92
32298;BME280;18782;48.984;8.548;2023-04-21T10:57:09;99397.97;;;16.87;57.08
32298;BME280;18782;48.984;8.548;2023-04-21T10:59:39;99411.94;;;16.77;55.45
32298;BME280;18782;48.984;8.548;2023-04-21T11:02:08;99400.72;;;16.72;55.67
32298;BME280;18782;48.984;8.548;2023-04-21T11:04:37;99395.50;;;16.70;55.29
32298;BME280;18782;48.984;8.548;2023-04-21T11:07:12;99389.44;;;16.68;55.91
32298;BME280;18782;48.984;8.548;2023-04-21T11:09:42;99382.47;;;16.75;55.68
32298;BME280;18782;48.984;8.548;2023-04-21T11:12:12;99386.59;;;16.98;56.14
32298;BME280;18782;48.984;8.548;2023-04-21T11:14:43;99379.53;;;17.09;55.10
32298;BME280;18782;48.984;8.548;2023-04-21T11:17:13;99374.88;;;17.38;55.03
32298;BME280;18782;48.984;8.548;2023-04-21T11:19:44;99358.13;;;17.58;54.15
32298;BME280;18782;48.984;8.548;2023-04-21T11:22:12;99365.78;;;17.70;52.76
32298;BME280;18782;48.984;8.548;2023-04-21T11:24:43;99377.69;;;17.89;51.67
32298;BME280;18782;48.984;8.548;2023-04-21T11:27:11;99373.25;;;17.94;51.42
32298;BME280;18782;48.984;8.548;2023-04-21T11:29:41;99373.78;;;18.18;52.20
32298;BME280;18782;48.984;8.548;2023-04-21T11:32:08;99369.91;;;18.42;52.10
32298;BME280;18782;48.984;8.548;2023-04-21T11:34:36;99373.91;;;18.63;51.20
32298;BME280;18782;48.984;8.548;2023-04-21T11:37:06;99369.19;;;18.86;51.98
32298;BME280;18782;48.984;8.548;2023-04-21T11:39:34;99375.34;;;19.27;51.72
32298;BME280;18782;48.984;8.548;2023-04-21T11:42:02;99370.47;;;19.53;49.52
32298;BME280;18782;48.984;8.548;2023-04-21T11:44:31;99370.16;;;19.69;50.88
32298;BME280;18782;48.984;8.548;2023-04-21T11:47:11;99377.94;;;20.09;48.63
32298;BME280;18782;48.984;8.548;2023-04-21T11:49:45;99361.78;;;20.29;48.21
32298;BME280;18782;48.984;8.548;2023-04-21T11:52:21;99361.28;;;20.50;46.47
32298;BME280;18782;48.984;8.548;2023-04-21T11:54:54;99354.47;;;20.07;46.69
32298;BME280;18782;48.984;8.548;2023-04-21T11:57:22;99365.31;;;20.28;47.47
32298;BME280;18782;48.984;8.548;2023-04-21T11:59:51;99362.00;;;20.57;44.77
32298;BME280;18782;48.984;8.548;2023-04-21T12:02:27;99351.13;;;20.38;44.33
32298;BME280;18782;48.984;8.548;2023-04-21T12:05:00;99356.63;;;20.63;45.40
32298;BME280;18782;48.984;8.548;2023-04-21T12:07:30;99354.94;;;20.93;45.54
32298;BME280;18782;48.984;8.548;2023-04-21T12:09:58;99351.16;;;21.36;45.28
32298;BME280;18782;48.984;8.548;2023-04-21T12:12:26;99350.06;;;21.43;43.89
32298;BME280;18782;48.984;8.548;2023-04-21T12:14:54;99342.28;;;21.42;44.06
32298;BME280;18782;48.984;8.548;2023-04-21T12:17:21;99333.91;;;21.58;44.28
32298;BME280;18782;48.984;8.548;2023-04-21T12:19:50;99332.31;;;22.10;44.22
32298;BME280;18782;48.984;8.548;2023-04-21T12:22:18;99331.59;;;22.32;42.62
32298;BME280;18782;48.984;8.548;2023-04-21T12:24:48;99332.88;;;22.20;42.13
32298;BME280;18782;48.984;8.548;2023-04-21T12:27:16;99336.25;;;22.50;40.91
32298;BME280;18782;48.984;8.548;2023-04-21T12:29:44;99344.06;;;22.77;41.46
32298;BME280;18782;48.984;8.548;2023-04-21T12:32:12;99345.31;;;23.40;40.29
32298;BME280;18782;48.984;8.548;2023-04-21T12:34:39;99336.72;;;22.88;40.28
32298;BME280;18782;48.984;8.548;2023-04-21T12:37:08;99329.41;;;23.43;40.73
32298;BME280;18782;48.984;8.548;2023-04-21T12:39:36;99332.97;;;23.65;38.89
32298;BME280;18782;48.984;8.548;2023-04-21T12:42:03;99330.47;;;24.06;38.71
32298;BME280;18782;48.984;8.548;2023-04-21T12:44:31;99319.78;;;24.73;37.89
32298;BME280;18782;48.984;8.548;2023-04-21T12:46:59;99333.00;;;25.13;38.43
32298;BME280;18782;48.984;8.548;2023-04-21T12:49:26;99318.88;;;25.53;36.67
32298;BME280;18782;48.984;8.548;2023-04-21T12:51:54;99309.59;;;25.44;36.25
32298;BME280;18782;48.984;8.548;2023-04-21T12:54:23;99312.00;;;25.11;36.34
32298;BME280;18782;48.984;8.548;2023-04-21T12:56:51;99313.72;;;25.50;35.94
32298;BME280;18782;48.984;8.548;2023-04-21T12:59:18;99305.25;;;25.04;36.20
32298;BME280;18782;48.984;8.548;2023-04-21T13:01:46;99306.44;;;25.93;36.17
32298;BME280;18782;48.984;8.548;2023-04-21T13:04:14;99304.66;;;26.64;35.61
32298;BME280;18782;48.984;8.548;2023-04-21T13:06:42;99306.03;;;26.37;33.85
32298;BME280;18782;48.984;8.548;2023-04-21T13:09:10;99298.63;;;26.95;33.33
32298;BME280;18782;48.984;8.548;2023-04-21T13:11:39;99302.25;;;27.10;32.52
32298;BME280;18782;48.984;8.548;2023-04-21T13:14:06;99300.03;;;28.13;31.82